Arcadia, Nebraska
Current Conditions -  °F | °C
As of 12:53 PM on Monday 20 Oct 2014 (Local Time) from KODX Reporting Station
Clear Clear  
Wind Chill: 19°   Ceiling: Unl
Heat Index: 19°   Visibility: 10mi
Dew Point:   Wind: 7mph
Humidity: 38%   Direction: 120°ESE
Pressure: 30.12"   Gusts: NA
Location:  41.42°N, 99.13°W
Report Text: KODX 201753Z AUTO 12006KT 10SM CLR 19/04 A3012 RMK AO2 SLP201 T01890044 10189 20028 58006
Loading
Personal Weather Stations






























Interactive Weather Map
Tropical Storm Tracking
New forecast layout! Learn more

10-Day Weather Forecast

Advertisements
Track Severe Weather on mobile